createdAt,value
2019-04-25T00:02:04.922Z,29.50
2019-04-25T00:04:36.933Z,29.60
2019-04-25T00:07:08.257Z,29.60
2019-04-25T00:09:42.715Z,29.60
2019-04-25T00:12:13.779Z,29.70
2019-04-25T00:14:44.750Z,29.70
2019-04-25T00:17:18.689Z,29.80
2019-04-25T00:19:51.052Z,29.80
2019-04-25T00:22:27.091Z,29.80
2019-04-25T00:24:59.472Z,29.90
2019-04-25T00:27:31.999Z,29.90
2019-04-25T00:30:03.136Z,30.00
2019-04-25T00:32:34.145Z,30.10
2019-04-25T00:35:05.918Z,30.20
2019-04-25T00:37:36.974Z,30.30
2019-04-25T00:40:11.864Z,30.40
2019-04-25T00:42:46.782Z,30.40
2019-04-25T00:45:18.047Z,30.50
2019-04-25T00:47:53.276Z,30.60
2019-04-25T00:50:25.633Z,30.70
2019-04-25T00:53:05.949Z,30.80
2019-04-25T00:55:36.846Z,30.90
2019-04-25T00:58:11.481Z,31.00
2019-04-25T01:00:44.974Z,31.10
2019-04-25T01:03:17.994Z,31.30
2019-04-25T01:05:49.624Z,31.40
2019-04-25T01:08:21.952Z,31.50
2019-04-25T01:10:55.611Z,31.60
2019-04-25T01:13:27.496Z,31.70
2019-04-25T01:15:58.675Z,31.80
2019-04-25T01:18:35.461Z,31.90
2019-04-25T01:21:07.077Z,32.00
2019-04-25T01:23:37.946Z,32.10
2019-04-25T01:26:19.559Z,32.20
2019-04-25T01:28:51.829Z,32.40
2019-04-25T01:31:24.928Z,32.50
2019-04-25T01:33:57.096Z,32.50
2019-04-25T01:36:29.630Z,32.60
2019-04-25T01:39:04.214Z,32.60
2019-04-25T01:41:39.968Z,32.70
2019-04-25T01:44:12.261Z,32.80
2019-04-25T01:46:44.952Z,32.90
2019-04-25T01:49:16.155Z,32.90
2019-04-25T01:51:48.799Z,33.00
2019-04-25T01:54:19.840Z,33.10
2019-04-25T01:56:55.896Z,33.20
2019-04-25T01:59:27.280Z,33.30
2019-04-25T02:01:58.856Z,33.30
2019-04-25T02:04:30.028Z,33.40
2019-04-25T02:07:03.600Z,33.40
2019-04-25T02:09:35.329Z,33.50
2019-04-25T02:12:07.390Z,33.60
2019-04-25T02:14:38.539Z,33.70
2019-04-25T02:17:09.511Z,33.80
2019-04-25T02:19:44.098Z,33.80
2019-04-25T02:22:15.550Z,33.90
2019-04-25T02:24:46.580Z,34.00
2019-04-25T02:27:21.117Z,34.10
2019-04-25T02:29:53.376Z,34.20
2019-04-25T02:32:24.949Z,34.30
2019-04-25T02:35:00.511Z,34.30
2019-04-25T02:37:28.504Z,34.40
2019-04-25T02:40:01.461Z,34.40
2019-04-25T02:42:34.327Z,34.50
2019-04-25T02:45:11.523Z,34.60
2019-04-25T02:47:59.702Z,34.70
2019-04-25T02:50:34.382Z,34.70
2019-04-25T02:53:08.460Z,34.80
2019-04-25T02:55:46.200Z,34.90
2019-04-25T02:58:18.464Z,35.00
2019-04-25T03:00:57.396Z,35.10
2019-04-25T03:03:24.444Z,35.30
2019-04-25T03:06:01.479Z,35.30
2019-04-25T03:08:35.234Z,35.40
2019-04-25T03:11:09.222Z,35.50
2019-04-25T03:13:38.783Z,35.60
2019-04-25T03:16:11.084Z,35.60
2019-04-25T03:18:44.338Z,35.70
2019-04-25T03:21:17.583Z,35.70
2019-04-25T03:23:50.652Z,35.80
2019-04-25T03:26:21.549Z,35.90
2019-04-25T03:28:53.762Z,35.90
2019-04-25T03:31:27.223Z,36.00
2019-04-25T03:34:07.845Z,36.00
2019-04-25T03:36:35.826Z,36.10
2019-04-25T03:39:16.511Z,36.20
2019-04-25T03:41:50.853Z,36.30
2019-04-25T03:44:23.685Z,36.40
2019-04-25T03:46:55.672Z,36.40
2019-04-25T03:49:26.668Z,36.40
2019-04-25T03:51:57.822Z,36.40
2019-04-25T03:54:33.431Z,36.50
2019-04-25T03:57:06.377Z,36.70
2019-04-25T03:59:37.307Z,36.80
2019-04-25T04:02:13.044Z,36.90
2019-04-25T04:04:46.830Z,37.00
2019-04-25T04:14:00.152Z,37.10
2019-04-25T04:16:34.178Z,37.10
2019-04-25T04:19:06.741Z,37.10
2019-04-25T04:21:40.838Z,37.10
2019-04-25T04:24:14.109Z,37.00
2019-04-25T04:26:49.423Z,37.00
2019-04-25T04:29:25.083Z,37.00
2019-04-25T04:31:57.506Z,37.00
2019-04-25T04:34:28.359Z,37.00
2019-04-25T04:37:03.729Z,37.00
2019-04-25T04:39:35.680Z,37.00
2019-04-25T04:42:07.571Z,37.00
2019-04-25T04:44:39.634Z,37.10
2019-04-25T04:47:10.774Z,37.20
2019-04-25T04:49:41.912Z,37.20
2019-04-25T04:52:14.412Z,37.30
2019-04-25T04:54:45.820Z,37.40
2019-04-25T04:57:28.865Z,37.50
2019-04-25T04:59:53.479Z,37.50
2019-04-25T05:02:26.515Z,37.60
2019-04-25T05:05:00.223Z,37.70
2019-04-25T05:07:38.458Z,37.70
2019-04-25T05:10:20.947Z,37.80
2019-04-25T05:12:53.265Z,37.80
2019-04-25T05:15:24.806Z,37.90
2019-04-25T05:18:00.723Z,37.80
2019-04-25T05:20:31.972Z,37.80
2019-04-25T05:23:09.638Z,37.80
2019-04-25T05:25:44.105Z,37.80
2019-04-25T05:28:23.725Z,37.90
2019-04-25T05:30:55.885Z,38.00
2019-04-25T05:33:26.949Z,38.10
2019-04-25T05:35:58.048Z,38.10
2019-04-25T05:38:33.266Z,38.10
2019-04-25T05:41:05.777Z,38.00
2019-04-25T05:43:36.715Z,38.00
2019-04-25T05:46:10.873Z,37.90
2019-04-25T05:48:41.816Z,37.90
2019-04-25T05:51:13.639Z,37.90
2019-04-25T05:53:47.180Z,37.90
2019-04-25T05:56:18.624Z,37.90
2019-04-25T05:58:54.987Z,38.00
2019-04-25T06:01:29.221Z,38.20
2019-04-25T06:04:00.478Z,38.20
2019-04-25T06:06:31.437Z,38.20
2019-04-25T06:09:04.145Z,38.20
2019-04-25T06:11:36.669Z,38.20
2019-04-25T06:14:14.401Z,38.20
2019-04-25T06:16:45.783Z,38.20
2019-04-25T06:19:19.694Z,38.30
2019-04-25T06:21:53.511Z,38.30
2019-04-25T06:24:27.307Z,38.30
2019-04-25T06:27:01.847Z,38.30
2019-04-25T06:29:34.793Z,38.30
2019-04-25T06:32:08.898Z,38.30
2019-04-25T06:34:40.035Z,38.20
2019-04-25T06:37:11.254Z,38.20
2019-04-25T06:39:44.109Z,38.10
2019-04-25T06:42:14.600Z,38.10
2019-04-25T06:44:47.140Z,38.30
2019-04-25T06:47:21.366Z,38.30
2019-04-25T06:49:55.444Z,38.40
2019-04-25T06:52:30.660Z,38.30
2019-04-25T06:54:59.161Z,38.30
2019-04-25T06:57:32.087Z,38.30
2019-04-25T07:00:04.322Z,38.30
2019-04-25T07:02:35.203Z,38.40
2019-04-25T07:05:25.631Z,38.40
2019-04-25T07:07:45.479Z,38.40
2019-04-25T07:10:16.726Z,38.50
2019-04-25T07:12:51.857Z,38.50
2019-04-25T07:15:26.968Z,38.50
2019-04-25T07:18:00.408Z,38.50
2019-04-25T07:20:32.246Z,38.40
2019-04-25T07:23:09.225Z,38.40
2019-04-25T07:25:44.067Z,38.40
2019-04-25T07:28:23.815Z,38.50
2019-04-25T07:30:52.700Z,38.40
2019-04-25T07:36:47.171Z,38.40
2019-04-25T07:39:21.328Z,38.40
2019-04-25T07:41:54.061Z,38.50
2019-04-25T07:44:38.654Z,38.50
2019-04-25T07:46:59.685Z,38.60
2019-04-25T07:49:33.112Z,38.60
2019-04-25T07:52:04.567Z,38.60
2019-04-25T07:54:36.321Z,38.60
2019-04-25T07:57:08.613Z,38.70
2019-04-25T07:59:39.805Z,38.70
2019-04-25T08:02:10.760Z,38.70
2019-04-25T08:04:44.528Z,38.70
2019-04-25T08:10:50.255Z,38.80
2019-04-25T08:13:23.333Z,38.80
2019-04-25T08:15:55.687Z,38.90
2019-04-25T08:18:28.607Z,38.80
2019-04-25T08:21:01.144Z,38.80
2019-04-25T08:23:35.995Z,38.80
2019-04-25T08:26:04.703Z,38.80
2019-04-25T08:28:48.945Z,38.80
2019-04-25T08:31:09.136Z,38.80
2019-04-25T08:33:41.447Z,38.80
2019-04-25T08:36:13.672Z,38.80
2019-04-25T08:38:44.854Z,38.80
2019-04-25T08:41:16.063Z,38.80
2019-04-25T08:43:51.265Z,38.90
2019-04-25T08:46:23.537Z,39.00
2019-04-25T08:48:56.105Z,39.00
2019-04-25T08:51:28.901Z,39.00
2019-04-25T08:54:04.233Z,39.00
2019-04-25T08:56:36.519Z,39.00
2019-04-25T08:59:09.220Z,39.00
2019-04-25T09:01:42.118Z,39.00
2019-04-25T09:04:18.149Z,39.00
2019-04-25T09:06:49.404Z,39.00
2019-04-25T09:09:20.435Z,39.00
2019-04-25T09:11:51.231Z,39.00
2019-04-25T09:14:24.572Z,39.10
2019-04-25T09:16:55.510Z,39.10
2019-04-25T09:19:26.502Z,39.00
2019-04-25T09:21:58.819Z,39.00
2019-04-25T09:24:31.284Z,39.10
2019-04-25T09:27:03.729Z,39.00
2019-04-25T09:29:36.466Z,39.00
2019-04-25T09:32:08.104Z,39.00
2019-04-25T09:34:39.941Z,39.00
2019-04-25T09:37:20.093Z,38.90
2019-04-25T09:39:53.785Z,38.90
2019-04-25T09:42:24.889Z,38.80
2019-04-25T09:44:57.469Z,38.80
2019-04-25T09:47:28.594Z,38.90
2019-04-25T09:49:59.913Z,38.80
2019-04-25T09:52:34.177Z,38.70
2019-04-25T09:55:05.752Z,38.60
2019-04-25T09:57:38.946Z,38.60
2019-04-25T10:00:13.255Z,38.60
2019-04-25T10:02:44.668Z,38.50
2019-04-25T10:05:17.409Z,38.50
2019-04-25T10:07:48.963Z,38.50
2019-04-25T10:10:20.121Z,38.40
2019-04-25T10:12:54.893Z,38.40
2019-04-25T10:15:28.531Z,38.30
2019-04-25T10:17:59.495Z,38.30
2019-04-25T10:20:30.514Z,38.30
2019-04-25T10:29:41.301Z,38.20
2019-04-25T10:32:04.328Z,38.10
2019-04-25T10:34:35.524Z,38.10
2019-04-25T10:37:07.134Z,38.10
2019-04-25T10:39:39.177Z,38.10
2019-04-25T10:42:10.824Z,38.00
2019-04-25T10:44:41.881Z,38.00
2019-04-25T10:47:14.235Z,37.90
2019-04-25T10:49:45.914Z,37.90
2019-04-25T10:52:17.393Z,37.80
2019-04-25T10:54:48.189Z,37.70
2019-04-25T10:57:22.240Z,37.60
2019-04-25T11:00:00.414Z,37.60
2019-04-25T11:02:26.384Z,37.50
2019-04-25T11:04:58.958Z,37.40
2019-04-25T11:07:30.014Z,37.30
2019-04-25T11:10:01.092Z,37.20
2019-04-25T11:12:34.897Z,37.20
2019-04-25T11:15:08.969Z,37.10
2019-04-25T11:17:39.902Z,37.00
2019-04-25T11:20:12.214Z,37.00
2019-04-25T11:22:44.749Z,36.90
2019-04-25T11:25:15.470Z,36.80
2019-04-25T11:27:49.577Z,36.70
2019-04-25T11:30:20.274Z,36.60
2019-04-25T11:32:58.777Z,36.60
2019-04-25T11:35:41.872Z,36.50
2019-04-25T11:38:14.087Z,36.50
2019-04-25T11:40:48.078Z,36.40
2019-04-25T11:43:18.754Z,36.30
2019-04-25T11:45:49.598Z,36.20
2019-04-25T11:48:20.441Z,36.20
2019-04-25T11:50:52.452Z,36.10
2019-04-25T11:53:24.994Z,36.10
2019-04-25T11:55:56.403Z,36.00
2019-04-25T11:58:27.642Z,36.00
2019-04-25T12:00:58.776Z,35.80
2019-04-25T12:03:29.650Z,35.80
2019-04-25T12:06:00.809Z,35.80
2019-04-25T12:08:31.635Z,35.70
2019-04-25T12:11:02.579Z,35.60
2019-04-25T12:13:34.548Z,35.60
2019-04-25T12:16:05.620Z,35.60
2019-04-25T12:18:36.647Z,35.60
2019-04-25T12:21:07.790Z,35.50
2019-04-25T12:23:38.613Z,35.50
2019-04-25T12:26:09.856Z,35.40
2019-04-25T12:28:41.020Z,35.30
2019-04-25T12:31:13.288Z,35.30
2019-04-25T12:33:46.290Z,35.30
2019-04-25T12:36:17.019Z,35.30
2019-04-25T12:38:48.355Z,35.30
2019-04-25T12:41:19.415Z,35.30
2019-04-25T12:43:52.792Z,35.30
2019-04-25T12:46:25.865Z,35.30
2019-04-25T12:48:57.698Z,35.30
2019-04-25T12:51:28.793Z,35.20
2019-04-25T12:54:00.003Z,35.20
2019-04-25T12:56:34.219Z,35.10
2019-04-25T12:59:08.544Z,35.00
2019-04-25T13:01:43.406Z,35.00
2019-04-25T13:04:14.509Z,35.00
2019-04-25T13:06:46.802Z,34.90
2019-04-25T13:09:17.945Z,34.80
2019-04-25T13:11:48.935Z,34.80
2019-04-25T13:14:19.980Z,34.70
2019-04-25T13:16:51.129Z,34.70
2019-04-25T13:19:24.646Z,34.60
2019-04-25T13:21:54.769Z,34.50
2019-04-25T13:24:26.013Z,34.50
2019-04-25T13:26:58.553Z,34.50
2019-04-25T13:29:33.202Z,34.50
2019-04-25T13:32:06.218Z,34.40
2019-04-25T13:34:40.276Z,34.40
2019-04-25T13:37:11.349Z,34.30
2019-04-25T13:39:44.175Z,34.30
2019-04-25T13:42:16.529Z,34.20
2019-04-25T13:44:47.689Z,34.20
2019-04-25T13:47:19.779Z,34.20
2019-04-25T13:49:50.860Z,34.10
2019-04-25T13:52:22.778Z,34.00
2019-04-25T13:54:54.446Z,34.00
2019-04-25T13:57:26.155Z,34.00
2019-04-25T13:59:57.256Z,34.00
2019-04-25T14:02:28.911Z,33.90
2019-04-25T14:05:00.149Z,33.90
2019-04-25T14:07:31.916Z,33.90
2019-04-25T14:10:03.291Z,33.80
2019-04-25T14:12:34.447Z,33.70
2019-04-25T14:15:07.513Z,33.70
2019-04-25T14:17:40.161Z,33.70
2019-04-25T14:20:11.551Z,33.70
2019-04-25T14:22:43.195Z,33.60
2019-04-25T14:25:15.412Z,33.60
2019-04-25T14:27:46.494Z,33.50
2019-04-25T14:30:19.498Z,33.50
2019-04-25T14:32:50.464Z,33.50
2019-04-25T14:35:21.649Z,33.40
2019-04-25T14:37:54.002Z,33.40
2019-04-25T14:40:25.853Z,33.40
2019-04-25T14:42:57.914Z,33.30
2019-04-25T14:45:41.557Z,33.30
2019-04-25T14:48:00.990Z,33.30
2019-04-25T14:50:31.940Z,33.30
2019-04-25T14:53:02.895Z,33.30
2019-04-25T14:55:36.610Z,33.20
2019-04-25T14:58:09.117Z,33.20
2019-04-25T15:00:41.460Z,33.20
2019-04-25T15:03:12.446Z,33.20
2019-04-25T15:05:43.661Z,33.10
2019-04-25T15:08:14.700Z,33.10
2019-04-25T15:10:47.082Z,33.10
2019-04-25T15:13:18.122Z,33.10
2019-04-25T15:15:49.004Z,33.00
2019-04-25T15:18:19.905Z,33.00
2019-04-25T15:20:51.090Z,33.00
2019-04-25T15:23:23.180Z,33.00
2019-04-25T15:25:54.666Z,33.00
2019-04-25T15:28:27.487Z,32.90
2019-04-25T15:30:58.949Z,32.90
2019-04-25T15:33:30.305Z,32.90
2019-04-25T15:36:03.749Z,32.90
2019-04-25T15:38:35.880Z,32.80
2019-04-25T15:41:09.046Z,32.80
2019-04-25T15:43:41.795Z,32.80
2019-04-25T15:46:13.994Z,32.80
2019-04-25T15:48:45.165Z,32.80
2019-04-25T15:51:16.175Z,32.70
2019-04-25T15:53:47.145Z,32.80
2019-04-25T15:56:18.325Z,32.70
2019-04-25T15:58:49.013Z,32.70
2019-04-25T16:01:20.240Z,32.70
2019-04-25T16:03:52.547Z,32.70
2019-04-25T16:06:23.661Z,32.70
2019-04-25T16:08:54.755Z,32.70
2019-04-25T16:11:26.560Z,32.60
2019-04-25T16:13:57.476Z,32.60
2019-04-25T16:16:28.613Z,32.60
2019-04-25T16:18:59.678Z,32.60
2019-04-25T16:21:31.302Z,32.50
2019-04-25T16:24:06.201Z,32.50
2019-04-25T16:26:37.309Z,32.60
2019-04-25T16:29:08.591Z,32.50
2019-04-25T16:31:39.738Z,32.50
2019-04-25T16:34:10.753Z,32.50
2019-04-25T16:36:41.859Z,32.50
2019-04-25T16:39:14.195Z,32.50
2019-04-25T16:41:44.997Z,32.50
2019-04-25T16:44:17.521Z,32.40
2019-04-25T16:46:48.560Z,32.40
2019-04-25T16:49:19.690Z,32.30
2019-04-25T16:51:50.663Z,32.30
2019-04-25T16:54:21.693Z,32.30
2019-04-25T16:56:53.836Z,32.30
2019-04-25T16:59:29.473Z,32.20
2019-04-25T17:02:00.645Z,32.20
2019-04-25T17:04:33.208Z,32.20
2019-04-25T17:07:04.389Z,32.10
2019-04-25T17:09:35.980Z,32.10
2019-04-25T17:12:07.819Z,32.10
2019-04-25T17:14:40.065Z,32.10
2019-04-25T17:17:12.442Z,32.10
2019-04-25T17:19:47.485Z,32.10
2019-04-25T17:22:18.875Z,32.00
2019-04-25T17:24:50.003Z,32.10
2019-04-25T17:27:21.064Z,32.00
2019-04-25T17:29:51.963Z,32.00
2019-04-25T17:32:24.294Z,32.00
2019-04-25T17:34:56.564Z,31.90
2019-04-25T17:37:29.115Z,31.90
2019-04-25T17:40:01.875Z,31.80
2019-04-25T17:42:33.740Z,31.80
2019-04-25T17:45:08.228Z,31.80
2019-04-25T17:47:51.676Z,31.70
2019-04-25T17:50:13.075Z,31.70
2019-04-25T17:52:43.970Z,31.70
2019-04-25T17:55:15.222Z,31.60
2019-04-25T17:57:46.219Z,31.50
2019-04-25T18:00:20.894Z,31.40
2019-04-25T18:02:58.748Z,31.40
2019-04-25T18:05:24.268Z,31.40
2019-04-25T18:07:55.545Z,31.30
2019-04-25T18:10:26.778Z,31.30
2019-04-25T18:12:57.874Z,31.30
2019-04-25T18:15:30.330Z,31.30
2019-04-25T18:18:02.904Z,31.20
2019-04-25T18:20:35.287Z,31.20
2019-04-25T18:23:07.659Z,31.10
2019-04-25T18:25:38.667Z,31.00
2019-04-25T18:28:11.366Z,31.00
2019-04-25T18:30:43.273Z,31.00
2019-04-25T18:33:15.760Z,31.00
2019-04-25T18:35:48.094Z,31.10
2019-04-25T18:38:20.761Z,31.10
2019-04-25T18:40:51.551Z,31.10
2019-04-25T18:43:22.469Z,31.10
2019-04-25T18:45:54.656Z,31.20
2019-04-25T18:48:29.516Z,31.20
2019-04-25T18:51:00.819Z,31.20
2019-04-25T18:53:34.263Z,31.20
2019-04-25T18:56:04.918Z,31.20
2019-04-25T18:58:35.438Z,31.20
2019-04-25T19:01:07.629Z,31.10
2019-04-25T19:03:41.572Z,31.10
2019-04-25T19:06:33.473Z,31.10
2019-04-25T19:09:05.156Z,31.10
2019-04-25T19:11:36.021Z,31.10
2019-04-25T19:14:07.279Z,31.00
2019-04-25T19:16:39.800Z,31.00
2019-04-25T19:19:11.278Z,31.00
2019-04-25T19:21:43.446Z,31.00
2019-04-25T19:24:14.748Z,30.90
2019-04-25T19:26:48.111Z,30.90
2019-04-25T19:29:19.174Z,30.90
2019-04-25T19:31:51.895Z,30.90
2019-04-25T19:34:22.199Z,30.90
2019-04-25T19:36:59.027Z,30.90
2019-04-25T19:39:32.303Z,30.80
2019-04-25T19:42:06.011Z,30.80
2019-04-25T19:44:37.372Z,30.80
2019-04-25T19:47:08.130Z,30.70
2019-04-25T19:49:38.863Z,30.70
2019-04-25T19:52:10.103Z,30.70
2019-04-25T19:54:41.949Z,30.70
2019-04-25T19:57:12.953Z,30.70
2019-04-25T19:59:44.658Z,30.70
2019-04-25T20:02:17.844Z,30.70
2019-04-25T20:04:51.123Z,30.70
2019-04-25T20:07:23.821Z,30.70
2019-04-25T20:09:56.602Z,30.60
2019-04-25T20:12:29.799Z,30.60
2019-04-25T20:15:00.828Z,30.50
2019-04-25T20:17:31.815Z,30.50
2019-04-25T20:20:02.874Z,30.50
2019-04-25T20:22:33.887Z,30.50
2019-04-25T20:25:05.285Z,30.50
2019-04-25T20:27:36.404Z,30.50
2019-04-25T20:30:08.355Z,30.50
2019-04-25T20:32:39.610Z,30.50
2019-04-25T20:35:10.860Z,30.50
2019-04-25T20:37:45.965Z,30.50
2019-04-25T20:40:17.409Z,30.40
2019-04-25T20:42:48.299Z,30.40
2019-04-25T20:45:20.211Z,30.40
2019-04-25T20:47:52.066Z,30.40
2019-04-25T20:50:23.268Z,30.40
2019-04-25T20:52:55.019Z,30.40
2019-04-25T20:55:26.373Z,30.40
2019-04-25T20:57:57.884Z,30.30
2019-04-25T21:00:31.711Z,30.30
2019-04-25T21:03:02.683Z,30.40
2019-04-25T21:05:33.526Z,30.40
2019-04-25T21:08:04.690Z,30.40
2019-04-25T21:10:35.748Z,30.40
2019-04-25T21:13:08.475Z,30.40
2019-04-25T21:15:42.300Z,30.40
2019-04-25T21:18:15.462Z,30.40
2019-04-25T21:20:46.511Z,30.40
2019-04-25T21:23:17.535Z,30.40
2019-04-25T21:25:48.543Z,30.40
2019-04-25T21:28:22.117Z,30.30
2019-04-25T21:30:53.046Z,30.30
2019-04-25T21:33:24.052Z,30.20
2019-04-25T21:35:55.522Z,30.20
2019-04-25T21:38:26.843Z,30.20
2019-04-25T21:40:59.902Z,30.20
2019-04-25T21:43:32.674Z,30.20
2019-04-25T21:46:04.924Z,30.10
2019-04-25T21:48:36.111Z,30.10
2019-04-25T21:51:08.974Z,30.10
2019-04-25T21:53:39.753Z,30.10
2019-04-25T21:56:10.662Z,30.00
2019-04-25T21:58:41.842Z,30.00
2019-04-25T22:01:14.406Z,29.90
2019-04-25T22:03:45.572Z,29.80
2019-04-25T22:06:17.887Z,29.80
2019-04-25T22:08:48.964Z,29.80
2019-04-25T22:11:19.820Z,29.70
2019-04-25T22:13:52.276Z,29.70
2019-04-25T22:16:23.636Z,29.60
2019-04-25T22:18:55.503Z,29.60
2019-04-25T22:21:37.875Z,29.60
2019-04-25T22:24:08.918Z,29.50
2019-04-25T22:26:33.663Z,29.50
2019-04-25T22:29:05.461Z,29.50
2019-04-25T22:31:38.073Z,29.40
2019-04-25T22:34:11.386Z,29.40
2019-04-25T22:36:42.869Z,29.40
2019-04-25T22:39:16.800Z,29.30
2019-04-25T22:41:49.139Z,29.30
2019-04-25T22:44:21.860Z,29.30
2019-04-25T22:46:54.420Z,29.30
2019-04-25T22:49:25.431Z,29.30
2019-04-25T22:51:56.160Z,29.30
2019-04-25T22:54:28.867Z,29.20
2019-04-25T22:57:00.077Z,29.30
2019-04-25T22:59:34.548Z,29.30
2019-04-25T23:02:05.504Z,29.20
2019-04-25T23:04:38.266Z,29.20
2019-04-25T23:07:10.009Z,29.20
2019-04-25T23:09:41.789Z,29.30
2019-04-25T23:12:13.359Z,29.30
2019-04-25T23:14:44.924Z,29.30
2019-04-25T23:17:15.950Z,29.20
2019-04-25T23:19:47.602Z,29.20
2019-04-25T23:22:18.373Z,29.20
2019-04-25T23:24:51.022Z,29.30
2019-04-25T23:27:23.184Z,29.30
2019-04-25T23:29:55.187Z,29.30
2019-04-25T23:32:26.677Z,29.30
2019-04-25T23:34:58.441Z,29.30
2019-04-25T23:37:29.311Z,29.30
2019-04-25T23:40:00.434Z,29.30
2019-04-25T23:42:40.516Z,29.40
2019-04-25T23:45:12.423Z,29.50
2019-04-25T23:47:43.422Z,29.50
2019-04-25T23:50:15.019Z,29.50
2019-04-25T23:52:46.051Z,29.60
2019-04-25T23:55:21.897Z,29.60
2019-04-25T23:57:54.000Z,29.70
